sensor_id;sensor_type;location;lat;lon;timestamp;P1;durP1;ratioP1;P2;durP2;ratioP2
33993;SDS011;20673;48.980;8.138;2022-09-09T00:01:56;4.87;;;1.87;;
33993;SDS011;20673;48.980;8.138;2022-09-09T00:04:33;8.13;;;2.17;;
33993;SDS011;20673;48.980;8.138;2022-09-09T00:10:17;2.03;;;1.37;;
33993;SDS011;20673;48.980;8.138;2022-09-09T00:15:57;3.80;;;1.53;;
33993;SDS011;20673;48.980;8.138;2022-09-09T00:21:24;2.43;;;1.87;;
33993;SDS011;20673;48.980;8.138;2022-09-09T00:24:14;2.50;;;1.70;;
33993;SDS011;20673;48.980;8.138;2022-09-09T00:26:48;3.83;;;2.00;;
33993;SDS011;20673;48.980;8.138;2022-09-09T00:29:23;4.13;;;1.70;;
33993;SDS011;20673;48.980;8.138;2022-09-09T00:32:14;5.60;;;2.63;;
33993;SDS011;20673;48.980;8.138;2022-09-09T00:34:51;6.57;;;2.63;;
33993;SDS011;20673;48.980;8.138;2022-09-09T00:37:24;8.90;;;2.20;;
33993;SDS011;20673;48.980;8.138;2022-09-09T00:39:53;3.67;;;2.07;;
33993;SDS011;20673;48.980;8.138;2022-09-09T00:42:26;5.80;;;2.05;;
33993;SDS011;20673;48.980;8.138;2022-09-09T00:45:17;6.33;;;2.10;;
33993;SDS011;20673;48.980;8.138;2022-09-09T00:47:53;4.03;;;2.10;;
33993;SDS011;20673;48.980;8.138;2022-09-09T01:01:40;6.30;;;2.13;;
33993;SDS011;20673;48.980;8.138;2022-09-09T01:04:09;5.93;;;2.17;;
33993;SDS011;20673;48.980;8.138;2022-09-09T01:06:41;3.60;;;2.00;;
33993;SDS011;20673;48.980;8.138;2022-09-09T01:09:14;4.90;;;1.95;;
33993;SDS011;20673;48.980;8.138;2022-09-09T01:17:27;4.58;;;1.55;;
33993;SDS011;20673;48.980;8.138;2022-09-09T01:22:43;3.47;;;1.40;;
33993;SDS011;20673;48.980;8.138;2022-09-09T01:28:40;4.90;;;1.15;;
33993;SDS011;20673;48.980;8.138;2022-09-09T01:31:11;4.50;;;0.90;;
33993;SDS011;20673;48.980;8.138;2022-09-09T01:33:42;4.53;;;1.05;;
33993;SDS011;20673;48.980;8.138;2022-09-09T01:36:13;3.47;;;1.00;;
33993;SDS011;20673;48.980;8.138;2022-09-09T01:38:59;8.23;;;1.20;;
33993;SDS011;20673;48.980;8.138;2022-09-09T01:41:25;8.67;;;1.13;;
33993;SDS011;20673;48.980;8.138;2022-09-09T01:43:52;2.00;;;0.90;;
33993;SDS011;20673;48.980;8.138;2022-09-09T01:46:21;6.33;;;0.90;;
33993;SDS011;20673;48.980;8.138;2022-09-09T01:48:52;6.97;;;0.87;;
33993;SDS011;20673;48.980;8.138;2022-09-09T01:51:20;5.65;;;1.00;;
33993;SDS011;20673;48.980;8.138;2022-09-09T01:53:47;3.70;;;0.90;;
33993;SDS011;20673;48.980;8.138;2022-09-09T01:59:07;5.27;;;1.40;;
33993;SDS011;20673;48.980;8.138;2022-09-09T02:04:54;3.85;;;0.90;;
33993;SDS011;20673;48.980;8.138;2022-09-09T02:07:28;5.70;;;1.33;;
33993;SDS011;20673;48.980;8.138;2022-09-09T02:10:19;2.97;;;1.43;;
33993;SDS011;20673;48.980;8.138;2022-09-09T02:12:53;5.17;;;1.83;;
33993;SDS011;20673;48.980;8.138;2022-09-09T02:15:28;3.97;;;1.30;;
33993;SDS011;20673;48.980;8.138;2022-09-09T02:17:58;3.60;;;1.40;;
33993;SDS011;20673;48.980;8.138;2022-09-09T02:20:28;5.50;;;1.70;;
33993;SDS011;20673;48.980;8.138;2022-09-09T02:22:57;3.77;;;1.40;;
33993;SDS011;20673;48.980;8.138;2022-09-09T02:25:26;3.50;;;1.63;;
33993;SDS011;20673;48.980;8.138;2022-09-09T02:27:57;3.50;;;1.42;;
33993;SDS011;20673;48.980;8.138;2022-09-09T02:30:24;2.33;;;1.57;;
33993;SDS011;20673;48.980;8.138;2022-09-09T02:32:54;3.03;;;1.50;;
33993;SDS011;20673;48.980;8.138;2022-09-09T02:35:24;5.17;;;1.83;;
33993;SDS011;20673;48.980;8.138;2022-09-09T02:37:56;3.10;;;1.53;;
33993;SDS011;20673;48.980;8.138;2022-09-09T02:40:27;6.28;;;1.37;;
33993;SDS011;20673;48.980;8.138;2022-09-09T02:42:54;8.03;;;1.57;;
33993;SDS011;20673;48.980;8.138;2022-09-09T02:45:23;4.33;;;1.10;;
33993;SDS011;20673;48.980;8.138;2022-09-09T02:47:59;5.17;;;1.20;;
33993;SDS011;20673;48.980;8.138;2022-09-09T02:56:25;3.17;;;0.93;;
33993;SDS011;20673;48.980;8.138;2022-09-09T02:58:56;4.35;;;0.90;;
33993;SDS011;20673;48.980;8.138;2022-09-09T03:01:22;5.30;;;1.13;;
33993;SDS011;20673;48.980;8.138;2022-09-09T03:03:48;3.63;;;1.20;;
33993;SDS011;20673;48.980;8.138;2022-09-09T03:06:15;4.42;;;1.30;;
33993;SDS011;20673;48.980;8.138;2022-09-09T03:08:41;8.55;;;1.75;;
33993;SDS011;20673;48.980;8.138;2022-09-09T03:11:08;3.07;;;1.20;;
33993;SDS011;20673;48.980;8.138;2022-09-09T03:13:35;3.33;;;1.17;;
33993;SDS011;20673;48.980;8.138;2022-09-09T03:16:01;2.87;;;1.20;;
33993;SDS011;20673;48.980;8.138;2022-09-09T03:18:29;3.23;;;1.17;;
33993;SDS011;20673;48.980;8.138;2022-09-09T03:20:55;3.27;;;1.20;;
33993;SDS011;20673;48.980;8.138;2022-09-09T03:23:21;1.10;;;0.70;;
33993;SDS011;20673;48.980;8.138;2022-09-09T03:25:49;2.63;;;1.13;;
33993;SDS011;20673;48.980;8.138;2022-09-09T03:28:15;4.00;;;1.30;;
33993;SDS011;20673;48.980;8.138;2022-09-09T03:30:41;2.63;;;1.27;;
33993;SDS011;20673;48.980;8.138;2022-09-09T03:33:08;3.63;;;0.97;;
33993;SDS011;20673;48.980;8.138;2022-09-09T03:35:34;2.13;;;0.80;;
33993;SDS011;20673;48.980;8.138;2022-09-09T03:38:01;3.20;;;0.90;;
33993;SDS011;20673;48.980;8.138;2022-09-09T03:40:27;4.90;;;1.10;;
33993;SDS011;20673;48.980;8.138;2022-09-09T03:42:54;2.17;;;0.87;;
33993;SDS011;20673;48.980;8.138;2022-09-09T03:45:20;3.40;;;1.00;;
33993;SDS011;20673;48.980;8.138;2022-09-09T03:47:46;2.50;;;0.70;;
33993;SDS011;20673;48.980;8.138;2022-09-09T03:50:12;2.53;;;0.77;;
33993;SDS011;20673;48.980;8.138;2022-09-09T03:52:38;2.43;;;0.90;;
33993;SDS011;20673;48.980;8.138;2022-09-09T03:55:06;2.87;;;0.80;;
33993;SDS011;20673;48.980;8.138;2022-09-09T03:57:34;1.67;;;0.90;;
33993;SDS011;20673;48.980;8.138;2022-09-09T04:00:03;5.27;;;1.20;;
33993;SDS011;20673;48.980;8.138;2022-09-09T04:02:32;5.83;;;1.10;;
33993;SDS011;20673;48.980;8.138;2022-09-09T04:04:58;6.63;;;1.23;;
33993;SDS011;20673;48.980;8.138;2022-09-09T04:07:25;3.60;;;1.00;;
33993;SDS011;20673;48.980;8.138;2022-09-09T04:09:52;3.40;;;0.83;;
33993;SDS011;20673;48.980;8.138;2022-09-09T04:12:19;3.33;;;0.80;;
33993;SDS011;20673;48.980;8.138;2022-09-09T04:14:46;2.23;;;0.77;;
33993;SDS011;20673;48.980;8.138;2022-09-09T04:17:12;1.67;;;0.77;;
33993;SDS011;20673;48.980;8.138;2022-09-09T04:19:38;2.85;;;1.00;;
33993;SDS011;20673;48.980;8.138;2022-09-09T04:22:04;1.67;;;0.90;;
33993;SDS011;20673;48.980;8.138;2022-09-09T04:24:30;4.07;;;0.90;;
33993;SDS011;20673;48.980;8.138;2022-09-09T04:26:57;1.77;;;0.60;;
33993;SDS011;20673;48.980;8.138;2022-09-09T04:29:23;2.95;;;1.10;;
33993;SDS011;20673;48.980;8.138;2022-09-09T04:31:49;3.70;;;1.10;;
33993;SDS011;20673;48.980;8.138;2022-09-09T04:34:15;2.40;;;0.90;;
33993;SDS011;20673;48.980;8.138;2022-09-09T04:36:41;3.10;;;0.77;;
33993;SDS011;20673;48.980;8.138;2022-09-09T04:39:07;4.60;;;1.40;;
33993;SDS011;20673;48.980;8.138;2022-09-09T04:41:33;2.47;;;1.10;;
33993;SDS011;20673;48.980;8.138;2022-09-09T04:44:01;1.83;;;0.90;;
33993;SDS011;20673;48.980;8.138;2022-09-09T04:46:29;1.73;;;0.87;;
33993;SDS011;20673;48.980;8.138;2022-09-09T04:48:55;1.93;;;1.13;;
33993;SDS011;20673;48.980;8.138;2022-09-09T04:51:21;4.07;;;1.27;;
33993;SDS011;20673;48.980;8.138;2022-09-09T04:53:47;2.43;;;1.13;;
33993;SDS011;20673;48.980;8.138;2022-09-09T04:56:15;1.77;;;1.03;;
33993;SDS011;20673;48.980;8.138;2022-09-09T04:58:43;3.70;;;1.37;;
33993;SDS011;20673;48.980;8.138;2022-09-09T05:01:16;4.33;;;1.23;;
33993;SDS011;20673;48.980;8.138;2022-09-09T05:03:47;3.23;;;1.10;;
33993;SDS011;20673;48.980;8.138;2022-09-09T05:06:14;1.67;;;1.00;;
33993;SDS011;20673;48.980;8.138;2022-09-09T05:08:43;3.53;;;1.07;;
33993;SDS011;20673;48.980;8.138;2022-09-09T05:11:16;3.70;;;1.00;;
33993;SDS011;20673;48.980;8.138;2022-09-09T05:13:49;3.03;;;1.00;;
33993;SDS011;20673;48.980;8.138;2022-09-09T05:16:16;4.37;;;1.30;;
33993;SDS011;20673;48.980;8.138;2022-09-09T05:18:43;2.43;;;1.13;;
33993;SDS011;20673;48.980;8.138;2022-09-09T05:21:11;3.73;;;1.00;;
33993;SDS011;20673;48.980;8.138;2022-09-09T05:23:39;1.80;;;0.73;;
33993;SDS011;20673;48.980;8.138;2022-09-09T05:26:06;3.40;;;0.90;;
33993;SDS011;20673;48.980;8.138;2022-09-09T05:28:36;3.33;;;0.97;;
33993;SDS011;20673;48.980;8.138;2022-09-09T05:31:03;4.27;;;0.97;;
33993;SDS011;20673;48.980;8.138;2022-09-09T05:33:37;4.07;;;0.90;;
33993;SDS011;20673;48.980;8.138;2022-09-09T05:36:06;3.13;;;0.90;;
33993;SDS011;20673;48.980;8.138;2022-09-09T05:38:36;2.07;;;1.07;;
33993;SDS011;20673;48.980;8.138;2022-09-09T05:41:03;4.53;;;1.10;;
33993;SDS011;20673;48.980;8.138;2022-09-09T05:43:29;4.43;;;1.33;;
33993;SDS011;20673;48.980;8.138;2022-09-09T05:46:03;5.93;;;1.10;;
33993;SDS011;20673;48.980;8.138;2022-09-09T05:48:34;3.83;;;1.07;;
33993;SDS011;20673;48.980;8.138;2022-09-09T05:51:02;3.00;;;1.00;;
33993;SDS011;20673;48.980;8.138;2022-09-09T05:53:32;4.27;;;0.77;;
33993;SDS011;20673;48.980;8.138;2022-09-09T05:56:03;2.33;;;0.80;;
33993;SDS011;20673;48.980;8.138;2022-09-09T05:58:36;1.95;;;1.20;;
33993;SDS011;20673;48.980;8.138;2022-09-09T06:01:07;3.17;;;0.90;;
33993;SDS011;20673;48.980;8.138;2022-09-09T06:03:39;5.85;;;0.85;;
33993;SDS011;20673;48.980;8.138;2022-09-09T06:06:08;5.65;;;0.80;;
33993;SDS011;20673;48.980;8.138;2022-09-09T06:08:38;4.10;;;0.95;;
33993;SDS011;20673;48.980;8.138;2022-09-09T06:11:09;4.20;;;0.80;;
33993;SDS011;20673;48.980;8.138;2022-09-09T06:13:44;1.70;;;0.85;;
33993;SDS011;20673;48.980;8.138;2022-09-09T06:16:12;3.40;;;0.72;;
33993;SDS011;20673;48.980;8.138;2022-09-09T06:18:44;2.05;;;0.90;;
33993;SDS011;20673;48.980;8.138;2022-09-09T06:21:20;4.20;;;0.90;;
33993;SDS011;20673;48.980;8.138;2022-09-09T06:23:47;2.58;;;1.00;;
33993;SDS011;20673;48.980;8.138;2022-09-09T06:26:15;2.62;;;0.85;;
33993;SDS011;20673;48.980;8.138;2022-09-09T06:28:46;3.87;;;0.80;;
33993;SDS011;20673;48.980;8.138;2022-09-09T06:31:15;7.70;;;1.30;;
33993;SDS011;20673;48.980;8.138;2022-09-09T06:36:16;3.72;;;1.00;;
33993;SDS011;20673;48.980;8.138;2022-09-09T06:38:48;1.62;;;0.80;;
33993;SDS011;20673;48.980;8.138;2022-09-09T06:41:15;4.87;;;1.40;;
33993;SDS011;20673;48.980;8.138;2022-09-09T06:43:44;2.37;;;1.20;;
33993;SDS011;20673;48.980;8.138;2022-09-09T06:46:12;1.98;;;1.00;;
33993;SDS011;20673;48.980;8.138;2022-09-09T06:51:14;4.15;;;1.25;;
33993;SDS011;20673;48.980;8.138;2022-09-09T06:53:52;2.12;;;1.00;;
33993;SDS011;20673;48.980;8.138;2022-09-09T06:56:22;5.25;;;1.22;;
33993;SDS011;20673;48.980;8.138;2022-09-09T06:59:01;5.12;;;1.40;;
33993;SDS011;20673;48.980;8.138;2022-09-09T07:01:32;5.55;;;1.40;;
33993;SDS011;20673;48.980;8.138;2022-09-09T07:04:00;3.37;;;1.10;;
33993;SDS011;20673;48.980;8.138;2022-09-09T07:06:30;3.22;;;0.90;;
33993;SDS011;20673;48.980;8.138;2022-09-09T07:09:00;3.47;;;1.05;;
33993;SDS011;20673;48.980;8.138;2022-09-09T07:11:36;5.72;;;1.22;;
33993;SDS011;20673;48.980;8.138;2022-09-09T07:14:10;2.65;;;0.70;;
33993;SDS011;20673;48.980;8.138;2022-09-09T07:16:39;4.75;;;1.50;;
33993;SDS011;20673;48.980;8.138;2022-09-09T07:19:07;2.65;;;1.47;;
33993;SDS011;20673;48.980;8.138;2022-09-09T07:21:33;3.33;;;0.87;;
33993;SDS011;20673;48.980;8.138;2022-09-09T07:24:00;4.37;;;1.07;;
33993;SDS011;20673;48.980;8.138;2022-09-09T07:26:28;5.83;;;1.50;;
33993;SDS011;20673;48.980;8.138;2022-09-09T07:28:56;3.40;;;1.50;;
33993;SDS011;20673;48.980;8.138;2022-09-09T07:31:24;5.90;;;1.50;;
33993;SDS011;20673;48.980;8.138;2022-09-09T07:33:56;4.15;;;1.60;;
33993;SDS011;20673;48.980;8.138;2022-09-09T07:36:26;4.42;;;1.32;;
33993;SDS011;20673;48.980;8.138;2022-09-09T07:39:00;5.65;;;1.35;;
33993;SDS011;20673;48.980;8.138;2022-09-09T07:41:28;6.87;;;1.20;;
33993;SDS011;20673;48.980;8.138;2022-09-09T07:44:08;4.28;;;1.40;;
33993;SDS011;20673;48.980;8.138;2022-09-09T07:46:39;7.30;;;1.47;;
33993;SDS011;20673;48.980;8.138;2022-09-09T07:49:07;2.43;;;1.20;;
33993;SDS011;20673;48.980;8.138;2022-09-09T07:51:36;2.97;;;1.47;;
33993;SDS011;20673;48.980;8.138;2022-09-09T07:54:07;3.92;;;1.15;;
33993;SDS011;20673;48.980;8.138;2022-09-09T07:56:36;4.97;;;1.20;;
33993;SDS011;20673;48.980;8.138;2022-09-09T07:59:04;4.17;;;1.27;;
33993;SDS011;20673;48.980;8.138;2022-09-09T08:01:33;3.43;;;1.17;;
33993;SDS011;20673;48.980;8.138;2022-09-09T08:04:10;3.83;;;1.50;;
33993;SDS011;20673;48.980;8.138;2022-09-09T08:06:39;4.55;;;1.47;;
33993;SDS011;20673;48.980;8.138;2022-09-09T08:09:07;4.70;;;1.17;;
33993;SDS011;20673;48.980;8.138;2022-09-09T08:11:34;1.15;;;1.00;;
33993;SDS011;20673;48.980;8.138;2022-09-09T08:14:02;4.10;;;1.17;;
33993;SDS011;20673;48.980;8.138;2022-09-09T08:16:31;4.47;;;1.27;;
33993;SDS011;20673;48.980;8.138;2022-09-09T08:19:01;4.60;;;1.62;;
33993;SDS011;20673;48.980;8.138;2022-09-09T08:21:29;5.20;;;1.27;;
33993;SDS011;20673;48.980;8.138;2022-09-09T08:23:59;5.30;;;1.27;;
33993;SDS011;20673;48.980;8.138;2022-09-09T08:26:30;6.57;;;1.60;;
33993;SDS011;20673;48.980;8.138;2022-09-09T08:29:09;9.60;;;1.40;;
33993;SDS011;20673;48.980;8.138;2022-09-09T08:31:40;6.07;;;1.77;;
33993;SDS011;20673;48.980;8.138;2022-09-09T08:34:23;4.50;;;1.40;;
33993;SDS011;20673;48.980;8.138;2022-09-09T08:36:52;5.43;;;1.53;;
33993;SDS011;20673;48.980;8.138;2022-09-09T08:39:19;4.73;;;1.47;;
33993;SDS011;20673;48.980;8.138;2022-09-09T08:50:17;2.67;;;0.93;;
33993;SDS011;20673;48.980;8.138;2022-09-09T08:53:03;3.57;;;1.40;;
33993;SDS011;20673;48.980;8.138;2022-09-09T08:55:45;3.83;;;1.33;;
33993;SDS011;20673;48.980;8.138;2022-09-09T08:58:19;5.30;;;1.27;;
33993;SDS011;20673;48.980;8.138;2022-09-09T09:10:08;2.42;;;1.27;;
33993;SDS011;20673;48.980;8.138;2022-09-09T09:12:45;3.95;;;1.07;;
33993;SDS011;20673;48.980;8.138;2022-09-09T09:15:24;7.05;;;1.20;;
33993;SDS011;20673;48.980;8.138;2022-09-09T09:17:55;5.70;;;1.10;;
33993;SDS011;20673;48.980;8.138;2022-09-09T09:23:28;5.95;;;1.15;;
33993;SDS011;20673;48.980;8.138;2022-09-09T09:25:59;4.43;;;1.30;;
33993;SDS011;20673;48.980;8.138;2022-09-09T09:28:30;4.50;;;0.80;;
33993;SDS011;20673;48.980;8.138;2022-09-09T09:36:18;5.67;;;1.40;;
33993;SDS011;20673;48.980;8.138;2022-09-09T09:38:57;3.43;;;0.80;;
33993;SDS011;20673;48.980;8.138;2022-09-09T09:41:36;4.75;;;1.00;;
33993;SDS011;20673;48.980;8.138;2022-09-09T09:44:18;2.77;;;0.80;;
33993;SDS011;20673;48.980;8.138;2022-09-09T09:47:07;3.80;;;0.93;;
33993;SDS011;20673;48.980;8.138;2022-09-09T09:49:39;4.97;;;0.90;;
33993;SDS011;20673;48.980;8.138;2022-09-09T09:52:24;4.10;;;1.00;;
33993;SDS011;20673;48.980;8.138;2022-09-09T09:54:54;4.55;;;0.95;;
33993;SDS011;20673;48.980;8.138;2022-09-09T09:57:28;11.90;;;1.57;;
33993;SDS011;20673;48.980;8.138;2022-09-09T10:00:30;8.37;;;1.10;;
33993;SDS011;20673;48.980;8.138;2022-09-09T10:02:46;3.75;;;0.98;;
33993;SDS011;20673;48.980;8.138;2022-09-09T10:08:00;2.30;;;0.77;;
33993;SDS011;20673;48.980;8.138;2022-09-09T10:10:55;4.57;;;1.27;;
33993;SDS011;20673;48.980;8.138;2022-09-09T10:16:49;4.40;;;0.93;;
33993;SDS011;20673;48.980;8.138;2022-09-09T10:19:27;5.55;;;1.10;;
33993;SDS011;20673;48.980;8.138;2022-09-09T10:34:02;2.27;;;0.70;;
33993;SDS011;20673;48.980;8.138;2022-09-09T10:36:37;4.20;;;0.77;;
33993;SDS011;20673;48.980;8.138;2022-09-09T10:39:17;4.35;;;0.95;;
33993;SDS011;20673;48.980;8.138;2022-09-09T10:42:05;3.58;;;1.05;;
33993;SDS011;20673;48.980;8.138;2022-09-09T10:56:10;4.55;;;0.90;;
33993;SDS011;20673;48.980;8.138;2022-09-09T11:01:24;1.50;;;0.50;;
33993;SDS011;20673;48.980;8.138;2022-09-09T11:04:05;3.35;;;0.57;;
33993;SDS011;20673;48.980;8.138;2022-09-09T11:06:44;2.95;;;0.78;;
33993;SDS011;20673;48.980;8.138;2022-09-09T11:09:20;7.45;;;1.22;;
33993;SDS011;20673;48.980;8.138;2022-09-09T11:11:54;3.35;;;0.85;;
33993;SDS011;20673;48.980;8.138;2022-09-09T11:14:25;2.80;;;0.80;;
33993;SDS011;20673;48.980;8.138;2022-09-09T11:17:21;3.45;;;0.72;;
33993;SDS011;20673;48.980;8.138;2022-09-09T11:19:54;4.08;;;1.00;;
33993;SDS011;20673;48.980;8.138;2022-09-09T11:22:40;2.52;;;0.80;;
33993;SDS011;20673;48.980;8.138;2022-09-09T11:33:34;4.17;;;0.93;;
33993;SDS011;20673;48.980;8.138;2022-09-09T11:36:31;4.33;;;0.75;;
33993;SDS011;20673;48.980;8.138;2022-09-09T11:42:26;5.17;;;0.82;;
33993;SDS011;20673;48.980;8.138;2022-09-09T11:44:44;4.20;;;1.20;;
33993;SDS011;20673;48.980;8.138;2022-09-09T11:47:26;3.33;;;0.80;;
33993;SDS011;20673;48.980;8.138;2022-09-09T11:52:47;4.47;;;0.90;;
33993;SDS011;20673;48.980;8.138;2022-09-09T11:55:25;4.10;;;0.93;;
33993;SDS011;20673;48.980;8.138;2022-09-09T12:00:35;4.30;;;1.32;;
33993;SDS011;20673;48.980;8.138;2022-09-09T12:08:53;5.97;;;1.27;;
33993;SDS011;20673;48.980;8.138;2022-09-09T12:11:36;4.40;;;1.12;;
33993;SDS011;20673;48.980;8.138;2022-09-09T12:14:02;4.62;;;1.12;;
33993;SDS011;20673;48.980;8.138;2022-09-09T12:19:05;6.03;;;1.23;;
33993;SDS011;20673;48.980;8.138;2022-09-09T12:24:37;8.37;;;1.37;;
33993;SDS011;20673;48.980;8.138;2022-09-09T12:27:16;5.13;;;1.17;;
33993;SDS011;20673;48.980;8.138;2022-09-09T12:29:58;8.25;;;1.47;;
33993;SDS011;20673;48.980;8.138;2022-09-09T12:32:27;5.53;;;1.30;;
33993;SDS011;20673;48.980;8.138;2022-09-09T12:37:32;4.08;;;1.12;;
33993;SDS011;20673;48.980;8.138;2022-09-09T12:40:19;5.90;;;1.47;;
33993;SDS011;20673;48.980;8.138;2022-09-09T12:42:51;4.47;;;1.02;;
33993;SDS011;20673;48.980;8.138;2022-09-09T12:45:21;3.72;;;1.10;;
33993;SDS011;20673;48.980;8.138;2022-09-09T12:47:53;4.58;;;0.70;;
33993;SDS011;20673;48.980;8.138;2022-09-09T12:50:30;2.77;;;0.70;;
33993;SDS011;20673;48.980;8.138;2022-09-09T12:53:01;3.87;;;0.55;;
33993;SDS011;20673;48.980;8.138;2022-09-09T12:55:48;5.03;;;1.05;;
33993;SDS011;20673;48.980;8.138;2022-09-09T12:58:21;2.60;;;0.70;;
33993;SDS011;20673;48.980;8.138;2022-09-09T13:00:54;2.20;;;0.80;;
33993;SDS011;20673;48.980;8.138;2022-09-09T13:03:22;3.00;;;0.80;;
33993;SDS011;20673;48.980;8.138;2022-09-09T13:05:50;1.92;;;0.62;;
33993;SDS011;20673;48.980;8.138;2022-09-09T13:08:18;4.17;;;0.78;;
33993;SDS011;20673;48.980;8.138;2022-09-09T13:10:51;5.27;;;0.77;;
33993;SDS011;20673;48.980;8.138;2022-09-09T13:13:41;2.90;;;0.88;;
33993;SDS011;20673;48.980;8.138;2022-09-09T13:16:20;2.27;;;0.80;;
33993;SDS011;20673;48.980;8.138;2022-09-09T13:18:58;5.57;;;0.90;;
33993;SDS011;20673;48.980;8.138;2022-09-09T13:21:31;5.77;;;1.00;;
33993;SDS011;20673;48.980;8.138;2022-09-09T13:23:59;3.05;;;0.70;;
33993;SDS011;20673;48.980;8.138;2022-09-09T13:26:28;4.12;;;1.00;;
33993;SDS011;20673;48.980;8.138;2022-09-09T13:28:55;3.87;;;0.98;;
33993;SDS011;20673;48.980;8.138;2022-09-09T13:31:44;2.20;;;0.60;;
33993;SDS011;20673;48.980;8.138;2022-09-09T13:34:25;4.25;;;0.65;;
33993;SDS011;20673;48.980;8.138;2022-09-09T13:36:59;3.67;;;0.78;;
33993;SDS011;20673;48.980;8.138;2022-09-09T13:39:28;3.12;;;0.80;;
33993;SDS011;20673;48.980;8.138;2022-09-09T13:41:55;3.57;;;0.80;;
33993;SDS011;20673;48.980;8.138;2022-09-09T13:44:28;5.73;;;1.13;;
33993;SDS011;20673;48.980;8.138;2022-09-09T13:49:30;2.73;;;0.83;;
33993;SDS011;20673;48.980;8.138;2022-09-09T13:52:08;4.03;;;0.97;;
33993;SDS011;20673;48.980;8.138;2022-09-09T13:54:42;3.53;;;0.70;;
33993;SDS011;20673;48.980;8.138;2022-09-09T13:57:17;1.50;;;0.63;;
33993;SDS011;20673;48.980;8.138;2022-09-09T13:59:50;2.87;;;0.60;;
33993;SDS011;20673;48.980;8.138;2022-09-09T14:02:20;2.17;;;0.63;;
33993;SDS011;20673;48.980;8.138;2022-09-09T14:04:48;3.08;;;0.80;;
33993;SDS011;20673;48.980;8.138;2022-09-09T14:07:16;1.45;;;0.40;;
33993;SDS011;20673;48.980;8.138;2022-09-09T14:09:44;2.53;;;0.40;;
33993;SDS011;20673;48.980;8.138;2022-09-09T14:12:12;2.10;;;0.70;;
33993;SDS011;20673;48.980;8.138;2022-09-09T14:14:41;4.22;;;0.50;;
33993;SDS011;20673;48.980;8.138;2022-09-09T14:17:08;4.65;;;0.60;;
33993;SDS011;20673;48.980;8.138;2022-09-09T14:19:34;4.00;;;0.70;;
33993;SDS011;20673;48.980;8.138;2022-09-09T14:22:02;4.12;;;0.60;;
33993;SDS011;20673;48.980;8.138;2022-09-09T14:24:28;5.27;;;0.80;;
33993;SDS011;20673;48.980;8.138;2022-09-09T14:26:54;4.40;;;0.80;;
33993;SDS011;20673;48.980;8.138;2022-09-09T14:29:21;2.73;;;0.63;;
33993;SDS011;20673;48.980;8.138;2022-09-09T14:31:48;2.30;;;0.60;;
33993;SDS011;20673;48.980;8.138;2022-09-09T14:34:14;1.50;;;0.68;;
33993;SDS011;20673;48.980;8.138;2022-09-09T14:36:40;2.10;;;0.90;;
33993;SDS011;20673;48.980;8.138;2022-09-09T14:39:07;2.52;;;0.90;;
33993;SDS011;20673;48.980;8.138;2022-09-09T14:41:33;5.05;;;0.72;;
33993;SDS011;20673;48.980;8.138;2022-09-09T14:43:59;2.83;;;0.83;;
33993;SDS011;20673;48.980;8.138;2022-09-09T14:46:26;4.10;;;0.70;;
33993;SDS011;20673;48.980;8.138;2022-09-09T14:48:52;4.90;;;0.53;;
33993;SDS011;20673;48.980;8.138;2022-09-09T14:51:19;2.07;;;0.50;;
33993;SDS011;20673;48.980;8.138;2022-09-09T14:53:52;3.53;;;0.70;;
33993;SDS011;20673;48.980;8.138;2022-09-09T14:56:21;4.72;;;0.45;;
33993;SDS011;20673;48.980;8.138;2022-09-09T14:58:53;1.50;;;0.40;;
33993;SDS011;20673;48.980;8.138;2022-09-09T15:01:20;1.43;;;0.33;;
33993;SDS011;20673;48.980;8.138;2022-09-09T15:03:49;1.98;;;0.78;;
33993;SDS011;20673;48.980;8.138;2022-09-09T15:06:18;4.93;;;0.57;;
33993;SDS011;20673;48.980;8.138;2022-09-09T15:08:47;2.43;;;0.60;;
33993;SDS011;20673;48.980;8.138;2022-09-09T15:11:16;1.73;;;0.50;;
33993;SDS011;20673;48.980;8.138;2022-09-09T15:13:43;2.37;;;0.47;;
33993;SDS011;20673;48.980;8.138;2022-09-09T15:16:13;3.55;;;0.70;;
33993;SDS011;20673;48.980;8.138;2022-09-09T15:18:43;1.47;;;0.35;;
33993;SDS011;20673;48.980;8.138;2022-09-09T15:21:17;3.15;;;0.40;;
33993;SDS011;20673;48.980;8.138;2022-09-09T15:23:45;2.05;;;0.40;;
33993;SDS011;20673;48.980;8.138;2022-09-09T15:26:12;1.25;;;0.40;;
33993;SDS011;20673;48.980;8.138;2022-09-09T15:28:40;1.25;;;0.40;;
33993;SDS011;20673;48.980;8.138;2022-09-09T15:31:09;1.87;;;0.42;;
33993;SDS011;20673;48.980;8.138;2022-09-09T15:33:40;2.17;;;0.53;;
33993;SDS011;20673;48.980;8.138;2022-09-09T15:36:20;2.55;;;0.30;;
33993;SDS011;20673;48.980;8.138;2022-09-09T15:38:49;0.72;;;0.20;;
33993;SDS011;20673;48.980;8.138;2022-09-09T15:41:18;1.27;;;0.40;;
33993;SDS011;20673;48.980;8.138;2022-09-09T15:43:48;1.65;;;0.37;;
33993;SDS011;20673;48.980;8.138;2022-09-09T15:48:55;3.22;;;0.50;;
33993;SDS011;20673;48.980;8.138;2022-09-09T15:51:25;2.10;;;0.30;;
33993;SDS011;20673;48.980;8.138;2022-09-09T15:53:53;2.85;;;0.42;;
33993;SDS011;20673;48.980;8.138;2022-09-09T15:56:22;3.23;;;0.50;;
33993;SDS011;20673;48.980;8.138;2022-09-09T15:58:50;4.40;;;0.63;;
33993;SDS011;20673;48.980;8.138;2022-09-09T16:01:17;1.57;;;0.50;;
33993;SDS011;20673;48.980;8.138;2022-09-09T16:03:45;3.10;;;0.57;;
33993;SDS011;20673;48.980;8.138;2022-09-09T16:06:17;1.77;;;0.60;;
33993;SDS011;20673;48.980;8.138;2022-09-09T16:08:42;2.90;;;0.63;;
33993;SDS011;20673;48.980;8.138;2022-09-09T16:11:11;1.40;;;0.40;;
33993;SDS011;20673;48.980;8.138;2022-09-09T16:13:42;2.70;;;0.60;;
33993;SDS011;20673;48.980;8.138;2022-09-09T16:16:10;2.60;;;0.80;;
33993;SDS011;20673;48.980;8.138;2022-09-09T16:18:40;6.42;;;1.50;;
33993;SDS011;20673;48.980;8.138;2022-09-09T16:21:18;5.58;;;1.37;;
33993;SDS011;20673;48.980;8.138;2022-09-09T16:23:45;7.20;;;1.30;;
33993;SDS011;20673;48.980;8.138;2022-09-09T16:26:12;5.47;;;0.90;;
33993;SDS011;20673;48.980;8.138;2022-09-09T16:28:40;2.53;;;0.70;;
33993;SDS011;20673;48.980;8.138;2022-09-09T16:31:08;5.70;;;1.37;;
33993;SDS011;20673;48.980;8.138;2022-09-09T16:33:37;2.73;;;0.80;;
33993;SDS011;20673;48.980;8.138;2022-09-09T16:36:06;3.73;;;1.30;;
33993;SDS011;20673;48.980;8.138;2022-09-09T16:38:36;2.63;;;1.00;;
33993;SDS011;20673;48.980;8.138;2022-09-09T16:41:03;3.47;;;0.83;;
33993;SDS011;20673;48.980;8.138;2022-09-09T16:43:32;3.80;;;1.17;;
33993;SDS011;20673;48.980;8.138;2022-09-09T16:46:00;3.17;;;0.67;;
33993;SDS011;20673;48.980;8.138;2022-09-09T16:48:31;3.23;;;0.67;;
33993;SDS011;20673;48.980;8.138;2022-09-09T16:51:01;1.92;;;0.60;;
33993;SDS011;20673;48.980;8.138;2022-09-09T16:53:30;4.45;;;0.90;;
33993;SDS011;20673;48.980;8.138;2022-09-09T16:55:57;5.23;;;0.70;;
33993;SDS011;20673;48.980;8.138;2022-09-09T16:58:23;1.83;;;0.53;;
33993;SDS011;20673;48.980;8.138;2022-09-09T17:00:50;1.73;;;0.70;;
33993;SDS011;20673;48.980;8.138;2022-09-09T17:03:16;1.90;;;0.60;;
33993;SDS011;20673;48.980;8.138;2022-09-09T17:05:42;1.17;;;0.50;;
33993;SDS011;20673;48.980;8.138;2022-09-09T17:08:09;1.07;;;0.42;;
33993;SDS011;20673;48.980;8.138;2022-09-09T17:10:40;3.05;;;0.50;;
33993;SDS011;20673;48.980;8.138;2022-09-09T17:13:07;4.35;;;0.88;;
33993;SDS011;20673;48.980;8.138;2022-09-09T17:15:38;3.52;;;0.65;;
33993;SDS011;20673;48.980;8.138;2022-09-09T17:18:10;3.27;;;0.62;;
33993;SDS011;20673;48.980;8.138;2022-09-09T17:20:38;2.50;;;0.60;;
33993;SDS011;20673;48.980;8.138;2022-09-09T17:23:07;4.45;;;0.72;;
33993;SDS011;20673;48.980;8.138;2022-09-09T17:25:35;1.57;;;0.70;;
33993;SDS011;20673;48.980;8.138;2022-09-09T17:28:02;1.17;;;0.57;;
33993;SDS011;20673;48.980;8.138;2022-09-09T17:30:29;1.87;;;1.02;;
33993;SDS011;20673;48.980;8.138;2022-09-09T17:33:00;5.08;;;0.88;;
33993;SDS011;20673;48.980;8.138;2022-09-09T17:35:26;2.05;;;1.10;;